Time;durP1;ratioP1;P1;durP2;ratioP2;P2;SDS_P1;SDS_P2;PMS_P1;PMS_P2;Temp;Humidity;BMP_temperature;BMP_pressure;BME280_temperature;BME280_humidity;BME280_pressure;Samples;Min_cycle;Max_cycle;Signal;HPM_P1;HPM_P2
2024/02/18 00:34:00;;;;;;;6.55;2.75;;;;;;;12.62;66.41;103089.06;5047717;27;96759;-74
2024/02/18 00:36:28;;;;;;;7.25;2.65;;;;;;;13.04;65.12;103089.19;5008700;28;107349;-74
2024/02/18 00:38:55;;;;;;;5.20;2.58;;;;;;;13.34;64.11;103089.50;5008132;28;123319;-74
2024/02/18 00:41:23;;;;;;;7.15;2.70;;;;;;;13.58;63.34;103081.91;5003959;28;123597;-74
2024/02/18 00:43:50;;;;;;;5.88;2.60;;;;;;;13.75;62.77;103077.09;5003944;28;107757;-75
2024/02/18 00:46:17;;;;;;;7.20;2.72;;;;;;;13.88;62.38;103077.69;4993563;28;107750;-75
2024/02/18 00:49:05;;;;;;;5.78;2.72;;;;;;;13.98;61.99;103083.69;5008328;28;122985;-75
2024/02/18 00:51:33;;;;;;;8.75;3.10;;;;;;;14.05;61.71;103077.28;5003010;28;124104;-75
2024/02/18 00:54:01;;;;;;;5.93;2.67;;;;;;;14.11;61.40;103079.81;5004774;28;107479;-74
2024/02/18 00:56:28;;;;;;;9.38;2.63;;;;;;;14.16;61.23;103071.69;4999826;28;107299;-75
2024/02/18 00:58:55;;;;;;;7.20;2.75;;;;;;;14.19;61.06;103072.50;5006489;28;124439;-75
2024/02/18 01:01:23;;;;;;;9.00;2.83;;;;;;;14.23;60.77;103072.44;5005355;28;123840;-76
2024/02/18 01:03:51;;;;;;;8.70;2.70;;;;;;;14.24;60.96;103063.50;5001356;28;107532;-75
2024/02/18 01:06:18;;;;;;;9.35;3.00;;;;;;;14.26;60.59;103061.69;5006026;28;107602;-75
2024/02/18 01:08:45;;;;;;;8.52;2.75;;;;;;;14.27;60.48;103064.31;5001723;28;124572;-76
2024/02/18 01:11:13;;;;;;;8.35;3.10;;;;;;;14.28;60.37;103060.75;5008401;28;123954;-76
2024/02/18 01:13:40;;;;;;;10.88;2.90;;;;;;;14.29;60.38;103066.94;5006376;28;108012;-75
2024/02/18 01:16:07;;;;;;;6.28;2.65;;;;;;;14.27;60.22;103052.78;5005989;28;107288;-75
2024/02/18 01:18:42;;;;;;;8.00;3.00;;;;;;;14.26;60.17;103062.56;5001345;28;124822;-74
2024/02/18 01:21:16;;;;;;;6.95;3.25;;;;;;;14.26;60.02;103056.34;4987088;28;122206;-76
2024/02/18 01:23:43;;;;;;;8.50;2.85;;;;;;;14.25;59.96;103049.28;4998549;28;106868;-76
2024/02/18 01:26:11;;;;;;;7.20;2.97;;;;;;;14.24;59.82;103052.84;5001688;28;107588;-75
2024/02/18 01:28:38;;;;;;;8.32;3.13;;;;;;;14.24;59.73;103047.53;5002471;28;124761;-76
2024/02/18 01:31:06;;;;;;;7.57;3.03;;;;;;;14.21;59.98;103043.16;5002716;28;124022;-75
2024/02/18 01:33:33;;;;;;;8.30;3.10;;;;;;;14.20;59.78;103042.28;5012845;27;106747;-76
2024/02/18 01:36:01;;;;;;;8.30;3.60;;;;;;;14.21;59.66;103038.69;4996069;28;107316;-75
2024/02/18 01:38:28;;;;;;;8.95;3.33;;;;;;;14.19;59.59;103040.53;4988877;28;123648;-76
2024/02/18 01:40:55;;;;;;;7.75;3.40;;;;;;;14.18;59.71;103044.13;4990044;28;123808;-75
2024/02/18 01:43:23;;;;;;;7.38;3.10;;;;;;;14.17;59.57;103031.69;4990510;28;107773;-75
2024/02/18 01:45:50;;;;;;;8.18;3.30;;;;;;;14.18;59.65;103032.56;4985251;28;107255;-74
2024/02/18 01:48:20;;;;;;;8.93;3.50;;;;;;;14.15;59.53;103033.53;4988913;28;124196;-76
2024/02/18 01:50:57;;;;;;;8.02;3.03;;;;;;;14.16;59.61;103029.06;4987042;28;124199;-76
2024/02/18 01:53:26;;;;;;;7.55;3.10;;;;;;;14.16;59.43;103024.59;4988947;28;107602;-75
2024/02/18 01:56:04;;;;;;;5.90;3.40;;;;;;;14.14;59.82;103025.56;4990012;28;107294;-76
2024/02/18 01:58:32;;;;;;;10.63;3.53;;;;;;;14.15;59.54;103017.53;4992727;28;124532;-76
2024/02/18 02:01:00;;;;;;;7.97;3.38;;;;;;;14.14;59.49;103018.44;4990943;28;123798;-75
2024/02/18 02:03:32;;;;;;;8.68;3.58;;;;;;;14.14;59.42;103020.22;4988867;28;107393;-76
2024/02/18 02:06:00;;;;;;;8.50;3.65;;;;;;;14.14;59.42;103007.78;4991644;28;107515;-75
2024/02/18 02:08:28;;;;;;;12.18;3.55;;;;;;;14.14;59.32;103006.91;4987061;28;123319;-76
2024/02/18 02:10:55;;;;;;;10.43;3.97;;;;;;;14.13;59.38;103011.38;4988442;28;124221;-76
2024/02/18 02:13:24;;;;;;;10.10;3.55;;;;;;;14.14;59.40;103009.56;4987052;28;107414;-76
2024/02/18 02:15:51;;;;;;;8.43;3.60;;;;;;;14.14;59.40;103015.75;4985140;28;107417;-76
2024/02/18 02:18:18;;;;;;;8.18;3.22;;;;;;;14.14;59.31;103015.75;4988563;28;124296;-77
2024/02/18 02:20:46;;;;;;;12.65;3.85;;;;;;;14.14;59.31;103007.78;5004000;28;123034;-75
2024/02/18 02:23:13;;;;;;;6.13;3.10;;;;;;;14.14;59.17;102999.78;4986698;28;107419;-75
2024/02/18 02:25:40;;;;;;;9.40;3.28;;;;;;;14.15;59.37;103009.53;4992421;28;107717;-75
2024/02/18 02:28:25;;;;;;;9.20;3.08;;;;;;;14.16;59.13;103003.28;4982976;28;124186;-76
2024/02/18 02:30:52;;;;;;;9.48;3.00;;;;;;;14.17;59.21;103005.03;4985554;28;123545;-76
2024/02/18 02:33:21;;;;;;;12.90;3.63;;;;;;;14.16;59.21;103013.94;5003592;28;106567;-77
2024/02/18 02:35:49;;;;;;;7.53;3.15;;;;;;;14.17;58.99;103015.69;4989580;28;107290;-76
2024/02/18 02:38:16;;;;;;;5.45;2.90;;;;;;;14.17;59.06;103010.38;4986990;28;124882;-74
2024/02/18 02:40:45;;;;;;;6.68;2.97;;;;;;;14.15;58.95;103004.19;5021642;28;123860;-75
2024/02/18 02:43:16;;;;;;;8.50;3.40;;;;;;;14.17;59.23;103009.50;4987035;28;106952;-76
2024/02/18 02:45:44;;;;;;;7.95;2.90;;;;;;;14.16;59.01;103003.28;4979427;28;107329;-76
2024/02/18 02:48:12;;;;;;;7.65;3.50;;;;;;;14.16;59.04;102986.41;5008960;28;123301;-76
2024/02/18 02:50:39;;;;;;;10.70;3.50;;;;;;;14.14;59.04;102994.44;4984838;28;123855;-76
2024/02/18 02:53:06;;;;;;;8.15;3.33;;;;;;;14.14;59.03;102993.56;4986553;28;107512;-76
2024/02/18 02:55:34;;;;;;;9.63;3.33;;;;;;;14.12;59.12;102982.09;4988601;28;107175;-76
2024/02/18 02:58:02;;;;;;;9.77;3.08;;;;;;;14.12;59.18;102980.28;5026655;27;124390;-76
2024/02/18 03:00:35;;;;;;;9.23;3.13;;;;;;;14.12;59.13;102980.28;4991970;28;124622;-76
2024/02/18 03:03:04;;;;;;;10.68;3.08;;;;;;;14.10;59.05;102974.13;5006983;28;107817;-76
2024/02/18 03:05:34;;;;;;;6.53;3.05;;;;;;;14.11;59.06;102975.88;4996256;28;106467;-76
2024/02/18 03:08:01;;;;;;;10.57;3.00;;;;;;;14.11;58.99;102973.22;4988968;28;122457;-76
2024/02/18 03:10:29;;;;;;;8.90;3.00;;;;;;;14.10;59.08;102971.47;4989792;28;124524;-77
2024/02/18 03:12:56;;;;;;;6.13;2.95;;;;;;;14.09;59.08;102969.72;4988863;28;106463;-76
2024/02/18 03:15:23;;;;;;;5.95;3.10;;;;;;;14.09;59.10;102971.50;4990655;28;107426;-76
2024/02/18 03:17:51;;;;;;;7.45;3.00;;;;;;;14.08;59.01;102967.97;4985073;28;123194;-75
2024/02/18 03:20:19;;;;;;;5.68;2.72;;;;;;;14.07;59.00;102963.56;4987214;28;124181;-77
2024/02/18 03:22:47;;;;;;;7.72;3.28;;;;;;;14.06;59.17;102959.13;4982640;28;108022;-76
2024/02/18 03:25:14;;;;;;;5.88;2.90;;;;;;;14.05;59.10;102945.84;4990895;28;107735;-76
2024/02/18 03:27:42;;;;;;;7.57;3.13;;;;;;;14.04;58.98;102950.31;4986770;28;123568;-74
2024/02/18 03:30:10;;;;;;;9.50;2.88;;;;;;;14.04;58.97;102944.97;4981526;28;123725;-76
2024/02/18 03:32:37;;;;;;;8.85;3.22;;;;;;;14.03;58.92;102945.88;4984416;28;106568;-75
2024/02/18 03:35:05;;;;;;;9.15;3.47;;;;;;;14.03;59.04;102940.56;4986013;28;107433;-75
2024/02/18 03:37:33;;;;;;;7.70;3.25;;;;;;;14.02;58.91;102941.47;4990737;28;123823;-76
2024/02/18 03:40:00;;;;;;;6.63;2.88;;;;;;;14.01;58.94;102934.38;4987252;28;123865;-75
2024/02/18 03:42:29;;;;;;;7.38;2.72;;;;;;;14.00;58.86;102932.66;4985873;28;107725;-75
2024/02/18 03:44:56;;;;;;;7.05;2.72;;;;;;;13.99;59.04;102921.13;4988340;28;107182;-76
2024/02/18 03:47:23;;;;;;;8.05;2.95;;;;;;;13.98;59.01;102921.16;4986306;28;124339;-75
2024/02/18 03:49:51;;;;;;;7.97;2.72;;;;;;;13.97;58.92;102916.75;4986406;28;123901;-75
2024/02/18 03:52:19;;;;;;;5.88;3.00;;;;;;;13.97;58.89;102916.75;5018977;28;106453;-75
2024/02/18 03:54:46;;;;;;;10.45;3.05;;;;;;;13.97;58.91;102916.75;4984593;28;107965;-75
2024/02/18 03:57:15;;;;;;;7.65;2.85;;;;;;;13.98;58.94;102910.50;5022932;28;123849;-75
2024/02/18 03:59:42;;;;;;;6.10;2.65;;;;;;;13.97;58.76;102906.94;4983358;28;124339;-76
2024/02/18 04:02:10;;;;;;;9.00;3.03;;;;;;;13.98;58.88;102902.53;4989720;28;107711;-76
2024/02/18 04:04:38;;;;;;;6.32;3.00;;;;;;;13.97;58.87;102895.44;4985235;28;107248;-76
2024/02/18 04:07:05;;;;;;;8.98;2.90;;;;;;;13.97;58.76;102895.44;4986096;28;124111;-76
2024/02/18 04:09:33;;;;;;;8.02;2.70;;;;;;;13.98;58.72;102886.53;4983826;28;123703;-75
2024/02/18 04:12:01;;;;;;;4.57;2.53;;;;;;;13.97;58.83;102879.44;4980701;28;107611;-76
2024/02/18 04:14:28;;;;;;;7.35;2.97;;;;;;;13.97;58.77;102874.13;4981362;28;106921;-75
2024/02/18 04:16:58;;;;;;;9.20;2.80;;;;;;;13.97;58.67;102879.44;5006371;28;123299;-76
2024/02/18 04:19:25;;;;;;;5.68;2.80;;;;;;;13.97;58.62;102871.44;4991077;28;124698;-76
2024/02/18 04:21:52;;;;;;;8.55;2.88;;;;;;;13.96;58.61;102872.38;4991813;28;107509;-75
2024/02/18 04:24:19;;;;;;;7.32;2.90;;;;;;;13.95;58.75;102865.28;4989917;28;106907;-76
2024/02/18 04:26:47;;;;;;;6.03;2.65;;;;;;;13.95;58.68;102863.50;4982837;28;124553;-76
2024/02/18 04:29:14;;;;;;;7.47;3.03;;;;;;;13.95;58.67;102865.28;4986976;28;123573;-76
2024/02/18 04:31:41;;;;;;;7.18;2.90;;;;;;;13.94;58.64;102858.22;4990446;28;107221;-75
2024/02/18 04:34:08;;;;;;;7.80;3.17;;;;;;;13.95;58.72;102851.97;4986689;28;107287;-75
2024/02/18 04:36:36;;;;;;;7.18;3.05;;;;;;;13.94;58.63;102853.78;4987439;28;124081;-75
2024/02/18 04:39:05;;;;;;;9.05;2.90;;;;;;;13.94;58.58;102852.91;4983507;28;123822;-75
2024/02/18 04:41:35;;;;;;;7.63;3.00;;;;;;;13.93;58.68;102851.13;4983856;28;109781;-75
2024/02/18 04:44:03;;;;;;;8.80;3.17;;;;;;;13.92;58.64;102849.38;4985940;28;108760;-76
2024/02/18 04:46:31;;;;;;;7.32;2.90;;;;;;;13.93;58.70;102856.47;4981756;28;124063;-76
2024/02/18 04:48:58;;;;;;;7.13;3.08;;;;;;;13.90;58.66;102853.88;4985094;28;124447;-76
2024/02/18 04:51:27;;;;;;;6.10;2.85;;;;;;;13.89;58.82;102839.69;4986638;28;110062;-76
2024/02/18 04:53:54;;;;;;;7.45;2.83;;;;;;;13.88;58.91;102842.38;4982863;28;110328;-76
2024/02/18 04:56:31;;;;;;;7.70;3.10;;;;;;;13.85;58.90;102831.84;4986234;28;123795;-75
2024/02/18 04:58:58;;;;;;;10.70;3.22;;;;;;;13.83;58.84;102835.41;4986955;28;122934;-75
2024/02/18 05:01:27;;;;;;;11.38;3.10;;;;;;;13.81;58.93;102831.91;4985728;28;109805;-76
2024/02/18 05:03:55;;;;;;;9.60;3.30;;;;;;;13.79;58.99;102823.09;4989726;28;110506;-76
2024/02/18 05:06:22;;;;;;;10.32;3.55;;;;;;;13.76;58.91;102823.16;4983894;28;124594;-77
2024/02/18 05:08:49;;;;;;;8.77;3.28;;;;;;;13.73;58.95;102812.59;4990426;28;123467;-77
2024/02/18 05:11:18;;;;;;;11.85;3.60;;;;;;;13.72;59.09;102816.16;4987674;28;109402;-76
2024/02/18 05:13:45;;;;;;;10.02;3.72;;;;;;;13.68;59.06;102809.19;4989203;28;108965;-77
2024/02/18 05:16:14;;;;;;;7.90;3.33;;;;;;;13.65;59.32;102803.94;4985992;28;123869;-76
2024/02/18 05:18:46;;;;;;;8.27;3.30;;;;;;;13.62;59.40;102798.72;4991048;28;123845;-77
2024/02/18 05:21:14;;;;;;;7.25;3.33;;;;;;;13.59;59.38;102799.63;5011786;28;108284;-77
2024/02/18 05:23:42;;;;;;;8.50;3.30;;;;;;;13.55;59.43;102797.13;4981918;28;108326;-76
2024/02/18 05:26:10;;;;;;;9.65;3.65;;;;;;;13.52;59.45;102792.72;4988520;28;124025;-76
2024/02/18 05:28:38;;;;;;;8.40;3.28;;;;;;;13.49;59.53;102792.81;4988417;28;123590;-76
2024/02/18 05:31:22;;;;;;;7.63;3.38;;;;;;;13.46;59.62;102786.69;4989437;28;109387;-76
2024/02/18 05:33:51;;;;;;;7.50;3.22;;;;;;;13.46;59.63;102781.38;4989501;28;109179;-76
2024/02/18 05:36:22;;;;;;;10.13;3.28;;;;;;;13.41;59.64;102774.38;4985937;28;124123;-76
2024/02/18 05:38:49;;;;;;;9.00;3.67;;;;;;;13.36;59.75;102773.63;4993017;28;122995;-76
2024/02/18 05:41:17;;;;;;;9.43;3.85;;;;;;;13.32;59.88;102774.63;4990694;28;110150;-76
2024/02/18 05:43:44;;;;;;;6.80;3.58;;;;;;;13.30;59.88;102771.13;4987440;28;110541;-76
2024/02/18 05:46:12;;;;;;;12.50;3.88;;;;;;;13.27;59.98;102770.31;4981742;28;124248;-75
2024/02/18 05:48:40;;;;;;;8.13;3.45;;;;;;;13.22;60.01;102763.31;5008381;28;123194;-75
2024/02/18 05:51:07;;;;;;;10.27;3.67;;;;;;;13.19;60.08;102757.19;5017282;28;108851;-76
2024/02/18 05:53:35;;;;;;;8.02;3.60;;;;;;;13.16;60.18;102751.94;4989881;28;108647;-75
2024/02/18 05:56:03;;;;;;;7.13;3.50;;;;;;;13.13;60.50;102746.69;4991809;28;124163;-76
2024/02/18 05:58:30;;;;;;;8.40;3.47;;;;;;;13.10;60.35;102742.31;4987484;28;123931;-75
2024/02/18 06:00:57;;;;;;;9.07;3.15;;;;;;;13.09;60.44;102735.28;4984364;28;109478;-76
2024/02/18 06:03:25;;;;;;;9.52;3.40;;;;;;;13.08;60.45;102737.97;4988951;28;109562;-76
2024/02/18 06:06:00;;;;;;;15.80;3.70;;;;;;;13.04;60.45;102732.72;4990855;28;124697;-76
2024/02/18 06:08:27;;;;;;;7.65;3.17;;;;;;;13.00;60.34;102731.03;4983396;28;125207;-76
2024/02/18 06:10:57;;;;;;;4.72;3.00;;;;;;;12.99;60.63;102718.66;4991668;28;109246;-76
2024/02/18 06:13:24;;;;;;;7.43;3.00;;;;;;;12.98;60.69;102724.91;4985013;28;108707;-76
2024/02/18 06:15:52;;;;;;;7.63;2.95;;;;;;;12.97;60.69;102706.31;4983899;28;123864;-76
2024/02/18 06:18:20;;;;;;;10.02;3.05;;;;;;;12.96;60.92;102708.09;4985921;28;123700;-76
2024/02/18 06:20:48;;;;;;;8.27;2.78;;;;;;;12.95;60.99;102711.66;4987823;28;109141;-77
2024/02/18 06:23:15;;;;;;;9.15;2.72;;;;;;;12.93;60.89;102702.84;4993010;28;108387;-76
2024/02/18 06:25:48;;;;;;;7.35;2.40;;;;;;;12.93;60.87;102705.50;4983203;28;124051;-76
2024/02/18 06:28:17;;;;;;;8.90;2.80;;;;;;;12.93;60.92;102696.66;4983714;28;122336;-76
2024/02/18 06:30:48;;;;;;;8.52;2.78;;;;;;;12.92;60.83;102693.13;4985643;28;109969;-76
2024/02/18 06:33:16;;;;;;;6.70;2.80;;;;;;;12.92;60.97;102690.47;4995165;28;110227;-76
2024/02/18 06:35:43;;;;;;;9.80;3.10;;;;;;;12.91;60.89;102695.81;4985563;28;124078;-77
2024/02/18 06:38:10;;;;;;;11.70;3.22;;;;;;;12.91;60.95;102688.72;4984689;28;124028;-77
2024/02/18 06:40:38;;;;;;;7.68;2.72;;;;;;;12.92;60.95;102689.59;4987885;28;109240;-77
2024/02/18 06:43:12;;;;;;;4.72;1.85;;;;;;;12.91;60.97;102683.41;4979917;28;109012;-77
2024/02/18 06:45:39;;;;;;;3.92;1.90;;;;;;;12.90;60.95;102676.31;4981928;28;124079;-77
2024/02/18 06:48:14;;;;;;;5.57;1.90;;;;;;;12.89;60.91;102674.59;4989876;28;125247;-77
2024/02/18 06:50:42;;;;;;;;;;;;;;;12.87;60.85;102671.09;4992559;28;108500;-76
2024/02/18 06:53:12;;;;;;;6.05;1.95;;;;;;;12.89;60.74;102669.28;4985401;28;109219;-76
2024/02/18 06:55:40;;;;;;;3.83;1.92;;;;;;;12.88;60.74;102662.19;4989327;28;124059;-76
2024/02/18 06:58:08;;;;;;;5.10;1.98;;;;;;;12.87;60.83;102657.81;4990365;28;123913;-77
2024/02/18 07:00:36;;;;;;;7.53;2.10;;;;;;;12.87;60.87;102655.13;4982913;28;109208;-77
2024/02/18 07:03:06;;;;;;;5.95;2.30;;;;;;;12.87;60.88;102649.81;4986754;28;109320;-77
2024/02/18 07:05:33;;;;;;;6.45;2.33;;;;;;;12.86;60.84;102648.06;4979875;28;124219;-77
2024/02/18 07:08:07;;;;;;;4.55;2.20;;;;;;;12.86;60.78;102650.72;4991447;28;123831;-77
2024/02/18 07:10:34;;;;;;;5.22;2.58;;;;;;;12.87;60.86;102643.63;4985420;28;109219;-77
2024/02/18 07:13:08;;;;;;;4.82;1.90;;;;;;;12.85;60.70;102641.00;4986613;28;108595;-77
2024/02/18 07:15:35;;;;;;;6.10;2.00;;;;;;;12.84;60.90;102640.13;4980169;28;123857;-77
2024/02/18 07:18:09;;;;;;;6.40;2.28;;;;;;;12.84;60.78;102644.56;4993495;28;124056;-77
2024/02/18 07:20:36;;;;;;;7.85;2.00;;;;;;;12.83;61.01;102634.88;4985924;28;110105;-77
2024/02/18 07:23:03;;;;;;;4.95;2.00;;;;;;;12.84;60.82;102636.59;4985589;28;110272;-77
2024/02/18 07:25:40;;;;;;;6.05;1.80;;;;;;;12.84;60.81;102633.94;4984639;28;124161;-77
2024/02/18 07:28:07;;;;;;;4.13;1.70;;;;;;;12.84;60.82;102633.94;4988612;28;124233;-77
2024/02/18 07:30:36;;;;;;;4.55;1.80;;;;;;;12.83;60.83;102626.88;5008550;28;108108;-78
2024/02/18 07:33:03;;;;;;;3.08;1.75;;;;;;;12.84;60.83;102628.63;4991523;28;108828;-79
2024/02/18 07:35:31;;;;;;;5.32;1.80;;;;;;;12.84;60.97;102632.13;4991367;28;123963;-78
2024/02/18 07:37:58;;;;;;;5.20;1.92;;;;;;;12.83;60.84;102621.56;4975143;28;123270;-77
2024/02/18 07:40:25;;;;;;;9.82;2.33;;;;;;;12.83;60.79;102626.88;4986350;28;108851;-76
2024/02/18 07:42:54;;;;;;;6.30;2.10;;;;;;;12.83;60.91;102616.25;4988194;28;109068;-76
2024/02/18 07:45:22;;;;;;;6.53;2.03;;;;;;;12.83;60.89;102622.44;4987726;28;123312;-75
2024/02/18 07:47:50;;;;;;;5.88;1.70;;;;;;;12.83;60.81;102617.13;4993667;28;125738;-75
2024/02/18 07:50:18;;;;;;;6.70;2.40;;;;;;;12.83;60.71;102608.28;4984789;28;109224;-75
2024/02/18 07:52:47;;;;;;;7.47;2.17;;;;;;;12.83;61.12;102610.94;4995175;28;109048;-75
2024/02/18 07:55:15;;;;;;;4.70;2.03;;;;;;;12.82;60.82;102603.84;4982065;28;124249;-76
2024/02/18 07:57:44;;;;;;;3.80;1.70;;;;;;;12.83;60.97;102610.94;5013764;28;123891;-75
2024/02/18 08:00:14;;;;;;;4.25;2.20;;;;;;;12.83;60.81;102600.28;4980107;28;108960;-75
2024/02/18 08:02:44;;;;;;;4.78;1.70;;;;;;;12.83;60.88;102589.66;4992199;28;109020;-75
2024/02/18 08:05:11;;;;;;;7.35;1.98;;;;;;;12.83;60.94;102590.53;4977115;28;124268;-75
2024/02/18 08:07:39;;;;;;;6.18;2.10;;;;;;;12.83;60.90;102584.34;4989381;28;124190;-75
2024/02/18 08:10:07;;;;;;;5.32;2.00;;;;;;;12.82;60.87;102579.91;4976499;28;110155;-76
2024/02/18 08:12:36;;;;;;;6.78;1.90;;;;;;;12.82;60.93;102577.25;4983982;28;109378;-75
2024/02/18 08:15:04;;;;;;;6.35;1.90;;;;;;;12.82;60.95;102582.59;4989902;28;124448;-77
2024/02/18 08:17:34;;;;;;;5.35;2.15;;;;;;;12.80;61.00;102577.31;4994190;28;123859;-76
2024/02/18 08:20:02;;;;;;;4.32;2.22;;;;;;;12.79;60.87;102566.69;4993446;28;109176;-76
2024/02/18 08:22:31;;;;;;;4.93;2.10;;;;;;;12.79;61.00;102570.25;5023362;28;108808;-76
2024/02/18 08:24:58;;;;;;;5.07;2.05;;;;;;;12.80;60.96;102574.63;4990386;28;123963;-77
2024/02/18 08:27:27;;;;;;;6.30;1.98;;;;;;;12.80;60.98;102568.47;4989540;28;123471;-76
2024/02/18 08:29:55;;;;;;;7.75;2.10;;;;;;;12.81;61.02;102562.25;4994001;28;109024;-76
2024/02/18 08:32:22;;;;;;;5.57;2.22;;;;;;;12.81;60.95;102567.56;5005854;28;108328;-76
2024/02/18 08:34:50;;;;;;;6.28;1.90;;;;;;;12.81;60.95;102564.91;4990081;28;124041;-75
2024/02/18 08:37:18;;;;;;;5.63;1.90;;;;;;;12.81;60.98;102559.59;4988816;28;123360;-75
2024/02/18 08:39:48;;;;;;;4.07;1.80;;;;;;;12.80;60.93;102556.03;4978935;28;109378;-76
2024/02/18 08:42:16;;;;;;;5.15;2.22;;;;;;;12.82;60.93;102558.66;4982568;28;108885;-76
2024/02/18 08:44:45;;;;;;;6.97;2.22;;;;;;;12.81;60.92;102554.25;4985786;28;123850;-76
2024/02/18 08:47:12;;;;;;;5.70;1.80;;;;;;;12.80;61.00;102557.81;4977396;28;124613;-76
2024/02/18 08:49:42;;;;;;;6.85;1.83;;;;;;;12.80;60.87;102552.50;4995614;28;108893;-76
2024/02/18 08:52:09;;;;;;;4.78;2.17;;;;;;;12.80;60.91;102557.81;4993586;28;108722;-77
2024/02/18 08:54:41;;;;;;;4.32;1.83;;;;;;;12.79;60.97;102545.44;5012835;28;122937;-76
2024/02/18 08:57:08;;;;;;;6.18;1.90;;;;;;;12.79;60.98;102550.75;5020775;27;123799;-76
2024/02/18 08:59:49;;;;;;;4.03;1.80;;;;;;;12.78;60.99;102549.00;4995765;28;110164;-77
2024/02/18 09:02:18;;;;;;;10.80;2.20;;;;;;;12.78;61.02;102543.69;4989963;28;109960;-77
2024/02/18 09:04:49;;;;;;;7.45;2.03;;;;;;;12.78;61.00;102539.25;4984446;28;123926;-76
2024/02/18 09:07:16;;;;;;;3.88;1.60;;;;;;;12.78;61.24;102539.25;4986591;28;124317;-76
2024/02/18 09:09:45;;;;;;;8.57;1.85;;;;;;;12.77;60.96;102537.53;4988682;28;109133;-77
2024/02/18 09:12:12;;;;;;;5.50;2.05;;;;;;;12.76;60.95;102530.44;4991117;28;108647;-76
2024/02/18 09:15:05;;;;;;;3.22;1.45;;;;;;;12.75;60.91;102534.03;5005339;28;123281;-77
2024/02/18 09:17:54;;;;;;;5.60;2.03;;;;;;;12.75;61.00;102533.13;4993483;28;123444;-77
2024/02/18 09:20:21;;;;;;;3.80;1.80;;;;;;;12.74;61.10;102520.78;4991828;28;109376;-77
2024/02/18 09:22:49;;;;;;;6.93;1.50;;;;;;;12.72;61.06;102519.94;4983146;28;108216;-76
2024/02/18 09:25:16;;;;;;;7.00;1.42;;;;;;;12.70;61.14;102521.78;4994447;28;123779;-76
2024/02/18 09:27:46;;;;;;;6.03;1.50;;;;;;;12.69;61.04;102512.03;4989237;28;123808;-77
2024/02/18 09:30:14;;;;;;;3.60;1.40;;;;;;;12.66;61.12;102511.22;4980700;28;108778;-76
2024/02/18 09:32:44;;;;;;;6.20;1.67;;;;;;;12.65;61.09;102512.13;4990636;28;108964;-82
2024/02/18 09:35:17;;;;;;;4.38;1.52;;;;;;;12.62;61.22;102501.59;5000333;28;124079;-82
2024/02/18 09:37:44;;;;;;;5.25;1.60;;;;;;;12.62;60.88;102501.59;4998933;28;124421;-83
2024/02/18 09:40:40;;;;;;;4.10;1.52;;;;;;;12.60;61.00;102500.75;5028756;28;109780;-82
2024/02/18 09:43:07;;;;;;;5.43;1.63;;;;;;;12.60;61.08;102492.78;5006941;28;107902;-82
2024/02/18 09:49:41;;;;;;;8.30;1.40;;;;;;;12.54;61.23;102490.25;5007661;28;124741;-82
2024/02/18 09:52:11;;;;;;;2.85;1.35;;;;;;;12.52;61.29;102489.44;5008685;28;108410;-83
2024/02/18 09:55:32;;;;;;;4.00;1.50;;;;;;;12.52;61.32;102478.81;5003509;28;108292;-83
2024/02/18 09:57:59;;;;;;;6.10;1.25;;;;;;;12.52;61.24;102478.81;5011717;28;124447;-83
2024/02/18 10:00:26;;;;;;;6.25;1.40;;;;;;;12.50;61.26;102472.66;5003626;28;123468;-82
2024/02/18 10:07:58;;;;;;;4.85;1.20;;;;;;;12.46;61.35;102457.72;5008132;28;109800;-81
2024/02/18 10:14:39;;;;;;;3.60;1.50;;;;;;;12.45;61.41;102445.34;5006301;28;122392;-82
2024/02/18 10:18:07;;;;;;;2.05;1.00;;;;;;;12.44;61.51;102438.28;5073367;22;97704;-82
2024/02/18 10:20:35;;;;;;;4.03;1.30;;;;;;;12.43;61.41;102429.44;4959082;28;106726;-82
2024/02/18 10:23:03;;;;;;;3.97;1.50;;;;;;;12.45;61.50;102434.69;4928252;28;121823;-82
2024/02/18 11:07:29;;;;;;;3.13;1.50;;;;;;;12.45;61.73;102339.03;4939132;28;125029;-87
2024/02/18 11:31:12;;;;;;;1.48;1.20;;;;;;;12.43;61.67;102271.78;4945996;28;110317;-87
2024/02/18 11:49:30;;;;;;;2.20;1.40;;;;;;;12.44;61.84;102215.09;5084954;22;100295;-89
2024/02/18 11:52:00;;;;;;;2.58;1.40;;;;;;;12.46;61.71;102207.94;4928025;28;123324;-87
2024/02/18 11:59:12;;;;;;;2.53;1.23;;;;;;;12.49;61.61;102191.91;4942662;28;110080;-87
2024/02/18 12:04:36;;;;;;;7.32;1.33;;;;;;;12.52;61.72;102175.84;5073378;22;97037;-85
2024/02/18 12:41:39;;;;;;;2.75;1.50;;;;;;;12.59;61.66;102086.16;4963335;28;125179;-88
2024/02/18 12:51:49;;;;;;;4.28;1.25;;;;;;;12.59;61.76;102071.06;4963331;28;110140;-88
2024/02/18 13:02:54;;;;;;;3.78;1.30;;;;;;;12.62;61.80;102073.66;5104437;22;110456;-76
2024/02/18 13:05:23;;;;;;;4.00;1.35;;;;;;;12.64;61.87;102079.78;4948583;28;108608;-76
2024/02/18 13:08:04;;;;;;;4.43;1.20;;;;;;;12.69;61.99;102070.78;4932756;28;124004;-76
2024/02/18 13:10:32;;;;;;;3.28;1.02;;;;;;;12.72;62.11;102063.56;4919099;28;123870;-76
2024/02/18 13:13:03;;;;;;;5.10;1.13;;;;;;;12.74;61.93;102060.84;4926070;28;109235;-76
2024/02/18 13:15:31;;;;;;;3.38;1.40;;;;;;;12.76;61.83;102064.31;4898476;28;110124;-76
2024/02/18 13:17:59;;;;;;;6.18;1.20;;;;;;;12.78;61.94;102054.50;4904674;28;124184;-76
2024/02/18 13:20:26;;;;;;;2.47;1.00;;;;;;;12.79;61.84;102040.28;4911697;28;122919;-76
2024/02/18 13:22:56;;;;;;;4.30;1.30;;;;;;;12.78;61.98;102033.25;4913794;28;108977;-76
2024/02/18 13:25:23;;;;;;;5.18;1.40;;;;;;;12.78;62.02;102026.13;4905505;28;109251;-76
2024/02/18 13:27:52;;;;;;;3.03;1.10;;;;;;;12.80;61.75;102026.94;4908387;28;123945;-76
2024/02/18 13:30:19;;;;;;;4.18;1.20;;;;;;;12.82;61.86;102024.22;4905390;28;123652;-76
2024/02/18 13:32:49;;;;;;;3.03;1.40;;;;;;;12.84;62.08;102011.75;4902113;28;109235;-75
2024/02/18 13:35:16;;;;;;;3.63;1.27;;;;;;;12.84;62.21;102007.28;4912777;28;108659;-75
2024/02/18 13:37:44;;;;;;;2.92;1.30;;;;;;;12.85;62.05;102002.84;4900268;28;125025;-76
2024/02/18 13:40:11;;;;;;;3.53;1.30;;;;;;;12.85;62.02;101997.53;4931731;28;123778;-75
2024/02/18 13:42:47;;;;;;;3.22;1.42;;;;;;;12.84;62.01;101979.84;4899906;28;109795;-75
2024/02/18 13:45:14;;;;;;;3.50;1.15;;;;;;;12.86;61.72;101980.66;4906891;28;109304;-76
2024/02/18 13:47:52;;;;;;;3.55;1.67;;;;;;;12.87;62.16;101974.41;4909222;28;125671;-76
2024/02/18 13:50:24;;;;;;;4.88;1.60;;;;;;;12.88;62.02;101967.31;4913567;28;124364;-75
2024/02/18 13:52:54;;;;;;;2.95;1.38;;;;;;;12.89;62.23;101956.63;4905374;28;109134;-76
2024/02/18 13:55:21;;;;;;;4.60;1.42;;;;;;;12.90;62.15;101946.84;4917164;28;108861;-76
2024/02/18 13:57:49;;;;;;;4.55;1.10;;;;;;;12.91;62.28;101933.50;4909613;28;123789;-76
2024/02/18 14:00:17;;;;;;;3.42;1.40;;;;;;;12.92;62.27;101929.94;4907403;28;124275;-75
2024/02/18 14:02:44;;;;;;;3.78;1.20;;;;;;;12.94;62.46;101928.06;4898729;28;110430;-75
2024/02/18 14:05:15;;;;;;;2.92;1.38;;;;;;;12.96;62.45;101915.59;4913442;28;110271;-75
2024/02/18 14:07:43;;;;;;;3.13;1.10;;;;;;;12.96;62.54;101915.59;4898822;28;124130;-75
2024/02/18 14:10:13;;;;;;;3.08;1.05;;;;;;;12.96;62.23;101899.63;4914117;28;124020;-75
2024/02/18 14:12:41;;;;;;;4.72;1.52;;;;;;;12.97;62.40;101901.34;4903762;28;109117;-76
2024/02/18 14:15:10;;;;;;;2.40;1.17;;;;;;;12.98;62.50;101903.09;4914858;28;109069;-75
2024/02/18 14:17:41;;;;;;;1.75;1.20;;;;;;;13.00;62.59;101901.25;4898302;28;123798;-75
2024/02/18 14:20:15;;;;;;;5.97;1.20;;;;;;;13.02;62.80;101902.03;4914148;28;124864;-76
2024/02/18 14:22:43;;;;;;;3.08;1.30;;;;;;;13.04;62.55;101896.69;4910441;28;108219;-75
2024/02/18 14:25:13;;;;;;;2.08;1.10;;;;;;;13.07;62.65;101895.69;4915275;28;108925;-75
2024/02/18 14:27:41;;;;;;;1.88;1.10;;;;;;;13.07;62.75;101890.34;4914013;28;124179;-76
2024/02/18 14:30:09;;;;;;;3.00;1.27;;;;;;;13.10;62.83;101895.56;4917730;28;124267;-75